createdAt,value
2017-12-24T00:00:51.448Z,101903.50
2017-12-24T00:03:20.584Z,101895.73
2017-12-24T00:05:48.933Z,101888.61
2017-12-24T00:08:17.260Z,101895.82
2017-12-24T00:10:46.388Z,101906.72
2017-12-24T00:13:15.629Z,101891.63
2017-12-24T00:15:44.001Z,101902.69
2017-12-24T00:18:13.239Z,101918.98
2017-12-24T00:20:42.405Z,101928.66
2017-12-24T00:23:10.755Z,101944.44
2017-12-24T00:25:40.968Z,101930.77
2017-12-24T00:28:10.095Z,101928.19
2017-12-24T00:30:38.452Z,101915.72
2017-12-24T00:33:06.859Z,101911.92
2017-12-24T00:35:35.236Z,101909.13
2017-12-24T00:38:03.577Z,101902.11
2017-12-24T00:40:32.782Z,101904.42
2017-12-24T00:43:01.336Z,101903.81
2017-12-24T00:45:29.678Z,101904.34
2017-12-24T00:47:58.064Z,101900.58
2017-12-24T00:50:26.397Z,101907.16
2017-12-24T00:52:55.866Z,101914.84
2017-12-24T00:55:25.063Z,101915.36
2017-12-24T00:57:53.669Z,101923.92
2017-12-24T01:00:21.983Z,101911.80
2017-12-24T01:02:50.411Z,101911.97
2017-12-24T01:05:19.320Z,101906.52
2017-12-24T01:07:48.569Z,101915.17
2017-12-24T01:10:16.970Z,101907.56
2017-12-24T01:12:45.337Z,101915.76
2017-12-24T01:15:13.694Z,101913.77
2017-12-24T01:17:44.798Z,101911.67
2017-12-24T01:20:13.150Z,101910.27
2017-12-24T01:22:41.508Z,101914.45
2017-12-24T01:25:09.925Z,101914.13
2017-12-24T01:27:38.280Z,101919.99
2017-12-24T01:30:06.638Z,101922.17
2017-12-24T01:32:35.001Z,101922.09
2017-12-24T01:35:03.354Z,101927.44
2017-12-24T01:37:31.679Z,101926.17
2017-12-24T01:40:00.080Z,101921.94
2017-12-24T01:42:28.463Z,101926.02
2017-12-24T01:44:56.838Z,101925.29
2017-12-24T01:47:25.443Z,101903.74
2017-12-24T01:49:53.798Z,101922.89
2017-12-24T01:52:22.176Z,101909.40
2017-12-24T01:54:50.607Z,101916.55
2017-12-24T01:57:19.722Z,101920.19
2017-12-24T01:59:48.080Z,101938.17
2017-12-24T02:02:16.417Z,101944.94
2017-12-24T02:04:44.744Z,101935.50
2017-12-24T02:07:13.853Z,101938.83
2017-12-24T02:09:42.860Z,101937.70
2017-12-24T02:12:11.210Z,101939.14
2017-12-24T02:14:40.351Z,101942.52
2017-12-24T02:17:08.755Z,101948.72
2017-12-24T02:19:37.096Z,101952.41
2017-12-24T02:22:05.533Z,101956.11
2017-12-24T02:24:34.656Z,101941.07
2017-12-24T02:27:03.049Z,101950.77
2017-12-24T02:29:31.382Z,101961.66
2017-12-24T02:31:59.966Z,101958.84
2017-12-24T02:34:28.289Z,101955.14
2017-12-24T02:36:56.619Z,101956.70
2017-12-24T02:39:24.993Z,101963.94
2017-12-24T02:41:53.311Z,101960.16
2017-12-24T02:44:21.656Z,101966.30
2017-12-24T02:46:50.030Z,101952.39
2017-12-24T02:49:18.376Z,101950.11
2017-12-24T02:51:46.692Z,101943.48
2017-12-24T02:54:15.525Z,101947.92
2017-12-24T02:56:44.876Z,101942.10
2017-12-24T02:59:13.302Z,101949.19
2017-12-24T03:01:41.747Z,101944.54
2017-12-24T03:04:10.162Z,101953.95
2017-12-24T03:06:38.510Z,101938.71
2017-12-24T03:09:06.874Z,101937.99
2017-12-24T03:11:35.245Z,101939.66
2017-12-24T03:14:10.637Z,101935.88
2017-12-24T03:16:38.978Z,101918.64
2017-12-24T03:19:07.363Z,101929.69
2017-12-24T03:21:35.708Z,101926.80
2017-12-24T03:24:04.061Z,101925.76
2017-12-24T03:26:32.388Z,101932.58
2017-12-24T03:29:00.756Z,101927.67
2017-12-24T03:31:34.899Z,101921.78
2017-12-24T03:34:03.498Z,101925.14
2017-12-24T03:36:34.827Z,101911.19
2017-12-24T03:39:03.294Z,101906.94
2017-12-24T03:41:31.668Z,101903.86
2017-12-24T03:43:59.993Z,101914.77
2017-12-24T03:46:29.109Z,101914.02
2017-12-24T03:48:57.468Z,101907.29
2017-12-24T03:51:25.794Z,101904.00
2017-12-24T03:53:54.123Z,101905.28
2017-12-24T03:56:23.465Z,101905.45
2017-12-24T03:58:51.783Z,101898.45
2017-12-24T04:01:20.139Z,101897.83
2017-12-24T04:03:48.516Z,101899.73
2017-12-24T04:06:16.847Z,101886.09
2017-12-24T04:08:45.940Z,101896.47
2017-12-24T04:11:14.324Z,101886.73
2017-12-24T04:13:42.661Z,101881.21
2017-12-24T04:16:11.012Z,101874.89
2017-12-24T04:18:39.699Z,101880.13
2017-12-24T04:21:10.734Z,101863.47
2017-12-24T04:23:39.085Z,101863.33
2017-12-24T04:26:07.489Z,101874.41
2017-12-24T04:28:35.798Z,101869.95
2017-12-24T04:31:04.143Z,101861.06
2017-12-24T04:33:32.527Z,101863.39
2017-12-24T04:36:00.860Z,101866.69
2017-12-24T04:38:29.461Z,101866.86
2017-12-24T04:40:58.919Z,101863.53
2017-12-24T04:43:27.322Z,101854.64
2017-12-24T04:45:55.782Z,101856.78
2017-12-24T04:48:24.224Z,101860.87
2017-12-24T04:50:52.573Z,101863.26
2017-12-24T04:53:21.143Z,101860.66
2017-12-24T04:55:49.623Z,101853.38
2017-12-24T04:58:17.967Z,101854.73
2017-12-24T05:00:46.487Z,101848.00
2017-12-24T05:03:15.376Z,101847.50
2017-12-24T05:05:43.860Z,101845.38
2017-12-24T05:08:12.341Z,101857.66
2017-12-24T05:10:40.924Z,101852.86
2017-12-24T05:13:09.509Z,101853.23
2017-12-24T05:15:41.685Z,101846.13
2017-12-24T05:18:10.130Z,101849.70
2017-12-24T05:20:38.564Z,101847.21
2017-12-24T05:23:08.046Z,101843.83
2017-12-24T05:25:36.399Z,101845.22
2017-12-24T05:28:04.904Z,101844.91
2017-12-24T05:30:33.391Z,101845.30
2017-12-24T05:33:01.870Z,101846.92
2017-12-24T05:35:30.253Z,101849.42
2017-12-24T05:37:58.742Z,101850.02
2017-12-24T05:40:27.108Z,101838.70
2017-12-24T05:42:55.578Z,101850.37
2017-12-24T05:45:24.698Z,101848.48
2017-12-24T05:47:53.178Z,101852.91
2017-12-24T05:50:21.660Z,101852.19
2017-12-24T05:52:50.243Z,101848.70
2017-12-24T05:55:18.835Z,101843.94
2017-12-24T05:57:47.207Z,101834.36
2017-12-24T06:00:15.794Z,101832.46
2017-12-24T06:02:44.275Z,101819.38
2017-12-24T06:05:12.755Z,101823.84
2017-12-24T06:07:41.845Z,101830.20
2017-12-24T06:10:10.339Z,101815.41
2017-12-24T06:12:39.526Z,101821.49
2017-12-24T06:15:08.005Z,101826.73
2017-12-24T06:17:36.386Z,101830.06
2017-12-24T06:20:04.809Z,101819.87
2017-12-24T06:22:33.349Z,101821.27
2017-12-24T06:25:01.733Z,101821.76
2017-12-24T06:27:30.211Z,101825.02
2017-12-24T06:29:59.001Z,101825.48
2017-12-24T06:32:27.394Z,101825.67
2017-12-24T06:34:56.542Z,101824.41
2017-12-24T06:37:24.903Z,101819.38
2017-12-24T06:39:53.342Z,101806.65
2017-12-24T06:42:21.826Z,101810.38
2017-12-24T06:44:50.301Z,101813.10
2017-12-24T06:47:18.687Z,101802.72
2017-12-24T06:49:47.090Z,101796.94
2017-12-24T06:52:15.676Z,101795.84
2017-12-24T06:54:44.125Z,101811.27
2017-12-24T06:57:12.520Z,101798.51
2017-12-24T06:59:40.988Z,101805.39
2017-12-24T07:02:09.374Z,101809.59
2017-12-24T07:04:37.849Z,101807.48
2017-12-24T07:07:06.338Z,101805.16
2017-12-24T07:09:34.742Z,101799.44
2017-12-24T07:12:03.194Z,101808.34
2017-12-24T07:14:32.092Z,101808.78
2017-12-24T07:17:01.382Z,101809.38
2017-12-24T07:19:29.771Z,101803.91
2017-12-24T07:21:58.311Z,101799.00
2017-12-24T07:24:26.671Z,101798.95
2017-12-24T07:26:55.036Z,101802.63
2017-12-24T07:29:24.223Z,101794.09
2017-12-24T07:31:52.654Z,101796.48
2017-12-24T07:34:21.112Z,101788.84
2017-12-24T07:36:49.518Z,101797.67
2017-12-24T07:39:17.832Z,101794.42
2017-12-24T07:41:46.348Z,101808.80
2017-12-24T07:44:14.867Z,101808.03
2017-12-24T07:46:43.381Z,101816.22
2017-12-24T07:49:11.865Z,101816.46
2017-12-24T07:51:40.246Z,101823.91
2017-12-24T07:54:09.459Z,101825.09
2017-12-24T07:56:38.638Z,101825.91
2017-12-24T07:59:08.239Z,101814.06
2017-12-24T08:01:36.735Z,101808.00
2017-12-24T08:04:05.208Z,101819.20
2017-12-24T08:06:33.683Z,101803.96
2017-12-24T08:09:02.166Z,101808.09
2017-12-24T08:11:30.647Z,101814.09
2017-12-24T08:13:59.128Z,101809.80
2017-12-24T08:16:27.611Z,101809.81
2017-12-24T08:18:56.100Z,101803.42
2017-12-24T08:21:24.782Z,101802.34
2017-12-24T08:23:53.236Z,101802.28
2017-12-24T08:26:21.541Z,101798.89
2017-12-24T08:28:49.879Z,101795.03
2017-12-24T08:31:18.231Z,101795.13
2017-12-24T08:33:46.559Z,101789.26
2017-12-24T08:36:14.941Z,101780.78
2017-12-24T08:38:44.050Z,101770.22
2017-12-24T08:41:12.462Z,101781.64
2017-12-24T08:43:42.028Z,101770.38
2017-12-24T08:46:11.133Z,101783.55
2017-12-24T08:48:39.476Z,101776.54
2017-12-24T08:51:08.232Z,101782.83
2017-12-24T08:53:36.586Z,101795.00
2017-12-24T08:56:04.966Z,101796.20
2017-12-24T08:58:33.324Z,101786.76
2017-12-24T09:01:01.649Z,101786.63
2017-12-24T09:03:29.995Z,101798.86
2017-12-24T09:05:58.665Z,101808.78
2017-12-24T09:08:27.035Z,101789.30
2017-12-24T09:10:55.365Z,101796.83
2017-12-24T09:13:24.734Z,101800.70
2017-12-24T09:15:53.079Z,101808.61
2017-12-24T09:18:21.509Z,101800.88
2017-12-24T09:20:49.853Z,101795.48
2017-12-24T09:23:18.202Z,101796.97
2017-12-24T09:25:46.570Z,101784.72
2017-12-24T09:28:15.065Z,101794.98
2017-12-24T09:30:43.413Z,101785.13
2017-12-24T09:33:12.607Z,101783.09
2017-12-24T09:35:40.961Z,101794.75
2017-12-24T09:38:09.308Z,101797.48
2017-12-24T09:40:37.635Z,101802.30
2017-12-24T09:43:06.323Z,101793.91
2017-12-24T09:45:34.699Z,101799.47
2017-12-24T09:48:03.055Z,101801.38
2017-12-24T09:50:31.827Z,101788.06
2017-12-24T09:53:00.188Z,101785.74
2017-12-24T09:55:28.553Z,101794.78
2017-12-24T09:57:56.934Z,101791.64
2017-12-24T10:00:26.030Z,101803.70
2017-12-24T10:02:55.161Z,101795.02
2017-12-24T10:05:23.503Z,101798.40
2017-12-24T10:07:51.824Z,101799.72
2017-12-24T10:10:20.200Z,101797.38
2017-12-24T10:12:48.890Z,101787.50
2017-12-24T10:15:18.121Z,101797.31
2017-12-24T10:17:46.503Z,101789.84
2017-12-24T10:20:14.977Z,101781.00
2017-12-24T10:22:43.431Z,101779.22
2017-12-24T10:25:11.838Z,101777.55
2017-12-24T10:27:40.262Z,101777.08
2017-12-24T10:30:08.699Z,101767.95
2017-12-24T10:32:37.099Z,101769.59
2017-12-24T10:35:06.570Z,101757.41
2017-12-24T10:37:35.047Z,101760.75
2017-12-24T10:40:03.451Z,101760.13
2017-12-24T10:42:31.789Z,101748.22
2017-12-24T10:45:00.190Z,101754.69
2017-12-24T10:47:29.440Z,101747.83
2017-12-24T10:49:58.426Z,101745.80
2017-12-24T10:52:26.882Z,101743.97
2017-12-24T10:54:55.537Z,101739.70
2017-12-24T10:57:24.431Z,101724.10
2017-12-24T10:59:52.842Z,101744.06
2017-12-24T11:02:21.296Z,101731.53
2017-12-24T11:04:49.771Z,101735.70
2017-12-24T11:07:18.142Z,101734.74
2017-12-24T11:09:46.456Z,101718.22
2017-12-24T11:12:14.885Z,101721.09
2017-12-24T11:14:43.245Z,101719.97
2017-12-24T11:17:12.448Z,101725.30
2017-12-24T11:19:41.074Z,101712.18
2017-12-24T11:22:09.435Z,101710.20
2017-12-24T11:24:37.792Z,101688.11
2017-12-24T11:27:06.929Z,101707.79
2017-12-24T11:29:35.291Z,101707.64
2017-12-24T11:32:03.642Z,101699.59
2017-12-24T11:34:32.767Z,101694.27
2017-12-24T11:37:01.158Z,101698.45
2017-12-24T11:39:29.503Z,101696.50
2017-12-24T11:41:58.027Z,101693.92
2017-12-24T11:44:26.386Z,101692.70
2017-12-24T11:46:54.729Z,101696.98
2017-12-24T11:49:23.104Z,101683.05
2017-12-24T11:51:52.281Z,101682.14
2017-12-24T11:54:20.612Z,101680.06
2017-12-24T11:56:49.007Z,101669.80
2017-12-24T11:59:17.314Z,101679.64
2017-12-24T12:01:45.691Z,101670.34
2017-12-24T12:04:14.552Z,101662.98
2017-12-24T12:06:42.940Z,101652.44
2017-12-24T12:09:11.273Z,101654.83
2017-12-24T12:11:39.734Z,101647.59
2017-12-24T12:14:08.129Z,101653.98
2017-12-24T12:16:37.278Z,101644.60
2017-12-24T12:19:05.641Z,101648.32
2017-12-24T12:21:33.986Z,101651.11
2017-12-24T12:24:03.103Z,101630.61
2017-12-24T12:26:31.902Z,101635.95
2017-12-24T12:29:00.292Z,101624.95
2017-12-24T12:31:29.297Z,101617.48
2017-12-24T12:33:57.653Z,101636.01
2017-12-24T12:36:26.023Z,101628.23
2017-12-24T12:38:54.369Z,101618.70
2017-12-24T12:41:22.708Z,101620.85
2017-12-24T12:43:51.071Z,101610.73
2017-12-24T12:46:19.407Z,101611.14
2017-12-24T12:48:48.003Z,101601.11
2017-12-24T12:51:16.349Z,101614.28
2017-12-24T12:53:44.664Z,101605.97
2017-12-24T12:56:14.997Z,101592.19
2017-12-24T12:58:43.325Z,101596.45
2017-12-24T13:01:11.677Z,101600.42
2017-12-24T13:03:40.049Z,101604.91
2017-12-24T13:06:08.397Z,101597.94
2017-12-24T13:08:36.815Z,101589.80
2017-12-24T13:11:05.714Z,101592.66
2017-12-24T13:13:34.079Z,101585.64
2017-12-24T13:16:02.422Z,101583.88
2017-12-24T13:18:30.858Z,101581.08
2017-12-24T13:20:59.231Z,101569.34
2017-12-24T13:23:27.559Z,101587.36
2017-12-24T13:25:55.972Z,101575.85
2017-12-24T13:28:24.349Z,101576.09
2017-12-24T13:30:52.708Z,101558.75
2017-12-24T13:33:22.168Z,101566.81
2017-12-24T13:35:50.529Z,101560.13
2017-12-24T13:38:18.900Z,101550.88
2017-12-24T13:40:47.254Z,101553.59
2017-12-24T13:43:16.357Z,101540.12
2017-12-24T13:45:46.136Z,101545.45
2017-12-24T13:48:14.516Z,101533.72
2017-12-24T13:50:42.851Z,101530.44
2017-12-24T13:53:11.194Z,101544.05
2017-12-24T13:55:39.759Z,101539.49
2017-12-24T13:58:08.126Z,101534.73
2017-12-24T14:00:36.461Z,101524.90
2017-12-24T14:03:04.808Z,101526.53
2017-12-24T14:05:33.916Z,101518.55
2017-12-24T14:08:03.030Z,101528.30
2017-12-24T14:10:31.405Z,101530.23
2017-12-24T14:13:00.754Z,101536.07
2017-12-24T14:15:29.244Z,101529.95
2017-12-24T14:17:58.059Z,101523.97
2017-12-24T14:20:27.153Z,101517.48
2017-12-24T14:22:56.280Z,101518.76
2017-12-24T14:25:24.627Z,101524.75
2017-12-24T14:27:53.729Z,101518.48
2017-12-24T14:30:22.821Z,101525.54
2017-12-24T14:32:51.946Z,101521.55
2017-12-24T14:35:20.307Z,101520.98
2017-12-24T14:37:48.631Z,101511.72
2017-12-24T14:40:17.030Z,101507.87
2017-12-24T14:42:45.353Z,101506.73
2017-12-24T14:45:13.673Z,101509.09
2017-12-24T14:47:42.054Z,101500.33
2017-12-24T14:50:10.421Z,101517.98
2017-12-24T14:52:38.734Z,101504.37
2017-12-24T14:55:07.084Z,101503.45
2017-12-24T14:57:35.456Z,101500.47
2017-12-24T15:00:03.757Z,101486.36
2017-12-24T15:02:32.443Z,101491.77
2017-12-24T15:05:00.800Z,101493.67
2017-12-24T15:07:29.165Z,101495.33
2017-12-24T15:09:57.535Z,101483.52
2017-12-24T15:12:25.860Z,101488.78
2017-12-24T15:14:54.184Z,101503.02
2017-12-24T15:17:22.528Z,101495.60
2017-12-24T15:19:50.885Z,101493.63
2017-12-24T15:22:19.238Z,101500.68
2017-12-24T15:24:47.825Z,101489.48
2017-12-24T15:27:16.176Z,101487.56
2017-12-24T15:29:44.523Z,101492.70
2017-12-24T15:32:12.899Z,101493.52
2017-12-24T15:34:41.221Z,101487.37
2017-12-24T15:37:09.600Z,101481.84
2017-12-24T15:39:37.992Z,101479.36
2017-12-24T15:42:06.326Z,101491.48
2017-12-24T15:44:34.658Z,101492.48
2017-12-24T15:47:03.356Z,101501.16
2017-12-24T15:49:31.717Z,101489.61
2017-12-24T15:52:00.098Z,101482.69
2017-12-24T15:54:28.474Z,101486.62
2017-12-24T15:56:56.810Z,101487.55
2017-12-24T15:59:25.895Z,101485.87
2017-12-24T16:01:54.269Z,101491.46
2017-12-24T16:04:22.611Z,101498.66
2017-12-24T16:06:50.922Z,101485.59
2017-12-24T16:09:19.618Z,101490.56
2017-12-24T16:11:47.966Z,101490.46
2017-12-24T16:14:16.307Z,101489.23
2017-12-24T16:16:44.650Z,101486.44
2017-12-24T16:19:13.063Z,101488.15
2017-12-24T16:21:42.152Z,101498.56
2017-12-24T16:24:10.602Z,101488.58
2017-12-24T16:26:39.711Z,101490.43
2017-12-24T16:29:08.083Z,101496.56
2017-12-24T16:31:36.491Z,101490.46
2017-12-24T16:34:04.816Z,101478.46
2017-12-24T16:36:33.178Z,101490.16
2017-12-24T16:39:01.543Z,101491.28
2017-12-24T16:41:29.910Z,101488.38
2017-12-24T16:43:59.030Z,101477.17
2017-12-24T16:46:27.391Z,101477.52
2017-12-24T16:48:55.757Z,101477.30
2017-12-24T16:51:24.869Z,101483.00
2017-12-24T16:53:53.582Z,101474.95
2017-12-24T16:56:21.916Z,101471.58
2017-12-24T16:58:50.310Z,101476.91
2017-12-24T17:01:18.737Z,101467.42
2017-12-24T17:03:47.057Z,101468.91
2017-12-24T17:06:16.155Z,101471.80
2017-12-24T17:08:45.344Z,101473.61
2017-12-24T17:11:13.732Z,101467.66
2017-12-24T17:13:42.844Z,101475.91
2017-12-24T17:16:11.426Z,101457.14
2017-12-24T17:18:39.789Z,101463.49
2017-12-24T17:21:08.893Z,101466.41
2017-12-24T17:23:37.244Z,101464.17
2017-12-24T17:26:05.563Z,101461.55
2017-12-24T17:28:33.917Z,101460.93
2017-12-24T17:31:03.045Z,101456.77
2017-12-24T17:33:31.370Z,101449.22
2017-12-24T17:35:59.695Z,101461.24
2017-12-24T17:38:28.917Z,101468.05
2017-12-24T17:40:57.286Z,101452.61
2017-12-24T17:43:25.656Z,101463.27
2017-12-24T17:45:54.058Z,101461.28
2017-12-24T17:48:22.410Z,101449.20
2017-12-24T17:50:51.193Z,101453.16
2017-12-24T17:53:19.633Z,101445.47
2017-12-24T17:55:47.976Z,101453.51
2017-12-24T17:58:16.301Z,101454.66
2017-12-24T18:00:44.956Z,101452.98
2017-12-24T18:03:13.280Z,101452.84
2017-12-24T18:05:42.377Z,101450.07
2017-12-24T18:08:11.523Z,101435.69
2017-12-24T18:10:39.837Z,101435.47
2017-12-24T18:13:08.172Z,101437.67
2017-12-24T18:15:36.507Z,101434.00
2017-12-24T18:18:05.604Z,101431.84
2017-12-24T18:20:34.734Z,101425.29
2017-12-24T18:23:03.487Z,101425.49
2017-12-24T18:25:31.834Z,101422.55
2017-12-24T18:28:00.352Z,101432.27
2017-12-24T18:30:29.541Z,101437.86
2017-12-24T18:32:57.879Z,101422.16
2017-12-24T18:35:26.191Z,101431.62
2017-12-24T18:37:54.574Z,101428.67
2017-12-24T18:40:22.938Z,101423.55
2017-12-24T18:42:51.269Z,101431.29
2017-12-24T18:45:19.735Z,101424.31
2017-12-24T18:47:48.076Z,101418.58
2017-12-24T18:50:16.427Z,101411.41
2017-12-24T18:52:44.831Z,101422.50
2017-12-24T18:55:13.153Z,101424.10
2017-12-24T18:57:41.474Z,101427.27
2017-12-24T19:00:10.598Z,101434.88
2017-12-24T19:02:38.975Z,101422.82
2017-12-24T19:05:07.335Z,101434.34
2017-12-24T19:07:36.182Z,101430.95
2017-12-24T19:10:04.527Z,101424.67
2017-12-24T19:12:33.646Z,101413.30
2017-12-24T19:15:02.796Z,101420.23
2017-12-24T19:17:31.131Z,101423.73
2017-12-24T19:19:59.522Z,101423.23
2017-12-24T19:22:27.886Z,101428.56
2017-12-24T19:24:57.073Z,101414.81
2017-12-24T19:27:26.167Z,101423.67
2017-12-24T19:29:55.818Z,101425.61
2017-12-24T19:35:20.967Z,101423.73
2017-12-24T19:37:49.330Z,101423.77
2017-12-24T19:40:17.703Z,101427.64
2017-12-24T19:42:46.074Z,101423.31
2017-12-24T19:45:14.409Z,101419.70
2017-12-24T19:47:42.779Z,101424.33
2017-12-24T19:50:11.320Z,101425.34
2017-12-24T19:52:39.679Z,101424.65
2017-12-24T19:55:08.031Z,101411.42
2017-12-24T19:57:40.189Z,101421.30
2017-12-24T20:00:08.509Z,101412.03
2017-12-24T20:02:36.846Z,101413.75
2017-12-24T20:05:05.227Z,101416.84
2017-12-24T20:07:33.557Z,101423.85
2017-12-24T20:10:01.887Z,101431.21
2017-12-24T20:12:30.632Z,101418.20
2017-12-24T20:14:58.992Z,101421.99
2017-12-24T20:17:32.190Z,101416.89
2017-12-24T20:20:01.400Z,101415.62
2017-12-24T20:22:29.851Z,101417.19
2017-12-24T20:24:58.967Z,101421.22
2017-12-24T20:27:27.741Z,101420.80
2017-12-24T20:29:56.102Z,101429.45
2017-12-24T20:32:25.189Z,101433.83
2017-12-24T20:34:54.006Z,101439.38
2017-12-24T20:37:22.372Z,101439.68
2017-12-24T20:39:51.488Z,101447.11
2017-12-24T20:42:19.852Z,101450.57
2017-12-24T20:44:48.184Z,101441.02
2017-12-24T20:47:16.575Z,101439.09
2017-12-24T20:49:44.948Z,101435.22
2017-12-24T20:52:14.072Z,101442.20
2017-12-24T20:54:42.394Z,101438.83
2017-12-24T20:57:11.137Z,101439.17
2017-12-24T20:59:39.471Z,101436.23
2017-12-24T21:02:07.811Z,101450.61
2017-12-24T21:04:36.981Z,101446.21
2017-12-24T21:07:05.357Z,101438.74
2017-12-24T21:09:33.702Z,101442.39
2017-12-24T21:12:02.044Z,101447.47
2017-12-24T21:14:31.195Z,101447.70
2017-12-24T21:19:56.342Z,101448.72
2017-12-24T21:22:26.370Z,101443.59
2017-12-24T21:24:55.517Z,101455.30
2017-12-24T21:27:24.268Z,101446.16
2017-12-24T21:29:52.639Z,101452.44
2017-12-24T21:32:21.750Z,101455.03
2017-12-24T21:34:51.160Z,101453.25
2017-12-24T21:37:19.495Z,101448.28
2017-12-24T21:39:47.834Z,101442.86
2017-12-24T21:42:16.602Z,101455.22
2017-12-24T21:44:44.973Z,101455.27
2017-12-24T21:47:14.174Z,101464.36
2017-12-24T21:49:42.877Z,101462.59
2017-12-24T21:52:11.223Z,101460.13
2017-12-24T21:54:40.345Z,101468.59
2017-12-24T21:57:09.143Z,101464.64
2017-12-24T21:59:37.499Z,101466.16
2017-12-24T22:02:05.852Z,101473.06
2017-12-24T22:04:34.821Z,101460.30
2017-12-24T22:07:03.179Z,101471.63
2017-12-24T22:09:31.524Z,101468.67
2017-12-24T22:12:00.327Z,101472.36
2017-12-24T22:14:28.681Z,101460.07
2017-12-24T22:16:57.051Z,101474.88
2017-12-24T22:19:25.874Z,101476.78
2017-12-24T22:21:55.037Z,101470.17
2017-12-24T22:24:23.391Z,101468.66
2017-12-24T22:26:52.555Z,101475.53
2017-12-24T22:29:20.886Z,101469.02
2017-12-24T22:31:49.299Z,101469.40
2017-12-24T22:34:18.844Z,101458.80
2017-12-24T22:36:47.197Z,101461.23
2017-12-24T22:39:15.603Z,101463.64
2017-12-24T22:41:44.248Z,101461.47
2017-12-24T22:44:12.583Z,101457.34
2017-12-24T22:46:40.935Z,101447.08
2017-12-24T22:49:09.928Z,101457.16
2017-12-24T22:51:38.302Z,101456.48
2017-12-24T22:54:06.666Z,101454.91
2017-12-24T22:56:35.282Z,101456.30
2017-12-24T22:59:03.666Z,101453.13
2017-12-24T23:01:40.155Z,101460.88
2017-12-24T23:04:08.497Z,101451.88
2017-12-24T23:06:36.869Z,101449.78
2017-12-24T23:09:05.764Z,101439.63
2017-12-24T23:11:34.115Z,101442.16
2017-12-24T23:14:03.333Z,101441.42
2017-12-24T23:16:32.002Z,101448.35
2017-12-24T23:19:00.348Z,101439.28
2017-12-24T23:21:28.706Z,101432.43
2017-12-24T23:23:57.347Z,101432.43
2017-12-24T23:26:26.485Z,101426.61
2017-12-24T23:28:54.830Z,101430.84
2017-12-24T23:31:24.553Z,101433.92
2017-12-24T23:33:52.965Z,101441.29
2017-12-24T23:36:21.315Z,101439.88
2017-12-24T23:38:49.961Z,101439.43
2017-12-24T23:41:18.341Z,101442.47
2017-12-24T23:43:46.709Z,101442.84
2017-12-24T23:46:15.305Z,101435.94
2017-12-24T23:48:43.672Z,101442.50
2017-12-24T23:51:12.885Z,101441.70
2017-12-24T23:53:41.906Z,101442.56
2017-12-24T23:56:11.084Z,101430.25
2017-12-24T23:58:39.443Z,101441.62
